createdAt,value
2023-01-09T00:00:00.906Z,99119.88
2023-01-09T00:01:36.449Z,99115.72
2023-01-09T00:03:08.073Z,99116.78
2023-01-09T00:04:39.947Z,99118.66
2023-01-09T00:06:11.734Z,99112.63
2023-01-09T00:07:43.429Z,99112.63
2023-01-09T00:09:15.094Z,99112.81
2023-01-09T00:10:48.870Z,99116.38
2023-01-09T00:12:20.562Z,99109.34
2023-01-09T00:13:52.310Z,99112.91
2023-01-09T00:15:23.953Z,99115.53
2023-01-09T00:16:57.322Z,99114.00
2023-01-09T00:18:29.028Z,99118.50
2023-01-09T00:20:00.723Z,99117.75
2023-01-09T00:21:32.500Z,99117.13
2023-01-09T00:23:04.345Z,99112.03
2023-01-09T00:24:36.419Z,99121.69
2023-01-09T00:26:10.391Z,99123.56
2023-01-09T00:27:42.036Z,99120.19
2023-01-09T00:29:13.666Z,99111.56
2023-01-09T00:30:45.396Z,99112.59
2023-01-09T00:32:20.291Z,99108.25
2023-01-09T00:33:56.483Z,99124.09
2023-01-09T00:35:28.884Z,99131.09
2023-01-09T00:37:00.619Z,99122.47
2023-01-09T00:38:32.381Z,99130.50
2023-01-09T00:40:04.464Z,99127.97
2023-01-09T00:41:40.928Z,99135.94
2023-01-09T00:43:12.699Z,99130.88
2023-01-09T00:44:47.869Z,99134.59
2023-01-09T00:46:22.842Z,99138.91
2023-01-09T00:48:00.815Z,99141.69
2023-01-09T00:49:36.335Z,99138.28
2023-01-09T00:51:08.350Z,99151.41
2023-01-09T00:52:40.842Z,99141.00
2023-01-09T00:54:15.991Z,99152.53
2023-01-09T00:55:47.631Z,99130.72
2023-01-09T00:57:19.355Z,99154.38
2023-01-09T00:58:51.983Z,99143.97
2023-01-09T01:00:23.860Z,99146.75
2023-01-09T01:01:56.334Z,99147.59
2023-01-09T01:03:29.563Z,99148.63
2023-01-09T01:05:19.850Z,99147.94
2023-01-09T01:07:10.342Z,99151.41
2023-01-09T01:08:42.227Z,99151.47
2023-01-09T01:10:16.409Z,99146.44
2023-01-09T01:11:48.054Z,99148.28
2023-01-09T01:13:19.920Z,99146.59
2023-01-09T01:14:52.214Z,99158.06
2023-01-09T01:16:23.967Z,99164.16
2023-01-09T01:17:55.683Z,99162.56
2023-01-09T01:19:28.679Z,99158.25
2023-01-09T01:21:00.317Z,99171.41
2023-01-09T01:22:32.054Z,99168.88
2023-01-09T01:24:04.308Z,99163.75
2023-01-09T01:25:37.059Z,99172.34
2023-01-09T01:27:08.709Z,99173.19
2023-01-09T01:28:41.015Z,99174.88
2023-01-09T01:30:15.238Z,99174.81
2023-01-09T01:31:46.906Z,99162.63
2023-01-09T01:33:18.541Z,99171.25
2023-01-09T01:34:51.618Z,99166.72
2023-01-09T01:36:23.320Z,99173.66
2023-01-09T01:37:54.947Z,99168.31
2023-01-09T01:39:26.689Z,99163.00
2023-01-09T01:40:58.848Z,99159.44
2023-01-09T01:42:30.585Z,99167.97
2023-01-09T01:44:04.709Z,99181.00
2023-01-09T01:45:36.346Z,99166.97
2023-01-09T01:47:08.051Z,99165.03
2023-01-09T01:48:39.722Z,99176.38
2023-01-09T01:50:19.418Z,99177.22
2023-01-09T01:51:53.505Z,99181.53
2023-01-09T01:53:29.686Z,99178.81
2023-01-09T01:55:01.947Z,99182.38
2023-01-09T01:56:37.939Z,99186.78
2023-01-09T01:58:13.411Z,99188.63
2023-01-09T01:59:52.282Z,99187.78
2023-01-09T02:01:25.703Z,99194.03
2023-01-09T02:02:59.059Z,99194.19
2023-01-09T02:04:34.208Z,99203.09
2023-01-09T02:06:08.453Z,99206.72
2023-01-09T02:07:40.102Z,99206.78
2023-01-09T02:09:15.183Z,99207.63
2023-01-09T02:10:47.817Z,99211.03
2023-01-09T02:12:25.355Z,99211.88
2023-01-09T02:13:57.735Z,99211.97
2023-01-09T02:15:36.491Z,99218.03
2023-01-09T02:17:22.169Z,99219.81
2023-01-09T02:19:04.581Z,99207.63
2023-01-09T02:20:43.239Z,99211.34
2023-01-09T02:22:23.767Z,99196.63
2023-01-09T02:24:41.253Z,99198.16
2023-01-09T02:26:43.071Z,99197.47
2023-01-09T02:28:36.728Z,99194.09
2023-01-09T02:30:32.547Z,99203.56
2023-01-09T02:32:10.771Z,99207.25
2023-01-09T02:33:54.132Z,99203.06
2023-01-09T02:36:10.844Z,99209.16
2023-01-09T02:37:51.468Z,99217.38
2023-01-09T02:39:27.845Z,99220.25
2023-01-09T02:41:05.120Z,99222.00
2023-01-09T02:42:40.106Z,99220.31
2023-01-09T02:44:22.709Z,99222.78
2023-01-09T02:45:55.771Z,99219.41
2023-01-09T02:47:42.574Z,99225.34
2023-01-09T02:49:16.659Z,99220.94
2023-01-09T02:50:58.273Z,99223.47
2023-01-09T02:52:44.465Z,99213.84
2023-01-09T02:54:27.201Z,99218.16
2023-01-09T02:56:11.763Z,99220.94
2023-01-09T02:57:56.035Z,99227.88
2023-01-09T02:59:33.839Z,99225.25
2023-01-09T03:01:21.738Z,99220.84
2023-01-09T03:02:58.855Z,99220.09
2023-01-09T03:04:39.493Z,99224.63
2023-01-09T03:06:18.954Z,99217.69
2023-01-09T03:07:59.056Z,99220.50
2023-01-09T03:09:33.910Z,99215.84
2023-01-09T03:11:07.741Z,99217.88
2023-01-09T03:12:42.664Z,99216.25
2023-01-09T03:14:17.715Z,99221.66
2023-01-09T03:15:52.306Z,99221.72
2023-01-09T03:17:29.751Z,99221.03
2023-01-09T03:19:04.069Z,99222.81
2023-01-09T03:20:37.255Z,99232.53
2023-01-09T03:22:09.042Z,99221.28
2023-01-09T03:23:48.918Z,99224.06
2023-01-09T03:25:21.050Z,99223.44
2023-01-09T03:26:55.058Z,99240.25
2023-01-09T03:28:28.573Z,99239.63
2023-01-09T03:30:00.260Z,99229.22
2023-01-09T03:31:32.032Z,99240.63
2023-01-09T03:33:05.011Z,99235.53
2023-01-09T03:34:36.761Z,99244.38
2023-01-09T03:36:09.862Z,99238.41
2023-01-09T03:37:41.523Z,99241.19
2023-01-09T03:39:13.216Z,99242.16
2023-01-09T03:40:44.939Z,99249.16
2023-01-09T03:42:16.566Z,99248.31
2023-01-09T03:43:48.458Z,99245.78
2023-01-09T03:45:20.164Z,99243.31
2023-01-09T03:46:51.859Z,99246.09
2023-01-09T03:48:24.945Z,99248.72
2023-01-09T03:49:56.633Z,99241.84
2023-01-09T03:51:28.337Z,99246.31
2023-01-09T03:53:00.108Z,99250.69
2023-01-09T03:54:31.723Z,99255.16
2023-01-09T03:56:03.626Z,99244.84
2023-01-09T03:57:35.339Z,99251.00
2023-01-09T03:59:06.973Z,99256.38
2023-01-09T04:00:40.217Z,99257.31
2023-01-09T04:02:12.015Z,99259.22
2023-01-09T04:03:45.131Z,99257.59
2023-01-09T04:05:17.058Z,99261.06
2023-01-09T04:06:48.712Z,99256.81
2023-01-09T04:08:20.343Z,99260.34
2023-01-09T04:09:51.961Z,99254.34
2023-01-09T04:11:23.672Z,99262.34
2023-01-09T04:12:55.364Z,99266.81
2023-01-09T04:14:27.036Z,99265.91
2023-01-09T04:15:58.759Z,99270.44
2023-01-09T04:17:30.444Z,99266.19
2023-01-09T04:19:03.596Z,99260.94
2023-01-09T04:20:35.329Z,99277.56
2023-01-09T04:22:06.953Z,99264.63
2023-01-09T04:23:38.631Z,99275.94
2023-01-09T04:25:11.009Z,99279.53
2023-01-09T04:26:43.244Z,99279.56
2023-01-09T04:28:15.004Z,99277.97
2023-01-09T04:29:46.645Z,99277.06
2023-01-09T04:31:18.329Z,99278.81
2023-01-09T04:32:50.922Z,99275.44
2023-01-09T04:34:25.596Z,99282.50
2023-01-09T04:35:57.251Z,99279.88
2023-01-09T04:37:28.901Z,99277.34
2023-01-09T04:39:00.676Z,99279.09
2023-01-09T04:40:32.376Z,99279.94
2023-01-09T04:42:04.141Z,99287.78
2023-01-09T04:43:35.829Z,99285.97
2023-01-09T04:45:10.161Z,99284.19
2023-01-09T04:46:41.874Z,99288.56
2023-01-09T04:48:13.662Z,99288.66
2023-01-09T04:49:46.680Z,99285.19
2023-01-09T04:51:18.323Z,99287.78
2023-01-09T04:52:49.982Z,99286.09
2023-01-09T04:54:22.024Z,99288.66
2023-01-09T04:55:53.755Z,99289.44
2023-01-09T04:57:25.479Z,99292.81
2023-01-09T04:58:57.122Z,99288.38
2023-01-09T05:00:28.780Z,99296.88
2023-01-09T05:02:00.927Z,99300.19
2023-01-09T05:03:32.645Z,99304.38
2023-01-09T05:05:08.569Z,99303.44
2023-01-09T05:06:42.122Z,99304.97
2023-01-09T05:08:13.741Z,99302.22
2023-01-09T05:09:45.437Z,99316.88
2023-01-09T05:11:17.065Z,99317.56
2023-01-09T05:12:48.741Z,99312.16
2023-01-09T05:14:20.601Z,99313.81
2023-01-09T05:15:52.285Z,99316.34
2023-01-09T05:17:24.013Z,99317.06
2023-01-09T05:18:57.179Z,99317.06
2023-01-09T05:20:30.179Z,99317.91
2023-01-09T05:22:02.019Z,99314.31
2023-01-09T05:23:33.732Z,99321.16
2023-01-09T05:25:06.364Z,99318.44
2023-01-09T05:26:38.014Z,99318.31
2023-01-09T05:28:09.871Z,99319.94
2023-01-09T05:29:41.959Z,99318.88
2023-01-09T05:31:13.721Z,99317.09
2023-01-09T05:32:45.714Z,99313.56
2023-01-09T05:34:17.335Z,99319.56
2023-01-09T05:35:50.452Z,99316.72
2023-01-09T05:37:22.088Z,99318.25
2023-01-09T05:38:53.887Z,99324.19
2023-01-09T05:40:29.282Z,99319.63
2023-01-09T05:42:04.285Z,99332.53
2023-01-09T05:43:35.992Z,99330.53
2023-01-09T05:45:09.072Z,99329.59
2023-01-09T05:46:40.750Z,99330.47
2023-01-09T05:48:12.554Z,99328.69
2023-01-09T05:49:44.556Z,99321.69
2023-01-09T05:51:17.922Z,99326.13
2023-01-09T05:52:49.649Z,99335.56
2023-01-09T05:54:21.360Z,99325.88
2023-01-09T05:55:53.158Z,99323.19
2023-01-09T05:57:24.941Z,99333.59
2023-01-09T05:58:56.697Z,99329.22
2023-01-09T06:00:28.443Z,99327.44
2023-01-09T06:02:00.225Z,99322.13
2023-01-09T06:03:32.085Z,99329.91
2023-01-09T06:05:04.085Z,99327.16
2023-01-09T06:06:37.312Z,99327.00
2023-01-09T06:08:09.042Z,99322.59
2023-01-09T06:09:40.751Z,99327.84
2023-01-09T06:11:12.402Z,99328.69
2023-01-09T06:12:48.302Z,99326.81
2023-01-09T06:14:20.433Z,99329.22
2023-01-09T06:15:52.191Z,99331.00
2023-01-09T06:17:23.937Z,99327.53
2023-01-09T06:18:55.710Z,99334.38
2023-01-09T06:20:27.399Z,99330.78
2023-01-09T06:22:00.504Z,99332.53
2023-01-09T06:23:32.145Z,99329.84
2023-01-09T06:25:04.669Z,99329.84
2023-01-09T06:26:36.453Z,99324.59
2023-01-09T06:28:08.194Z,99327.16
2023-01-09T06:29:39.963Z,99323.59
2023-01-09T06:31:11.743Z,99322.69
2023-01-09T06:32:45.728Z,99321.84
2023-01-09T06:34:17.453Z,99329.78
2023-01-09T06:35:49.121Z,99326.31
2023-01-09T06:37:22.117Z,99331.53
2023-01-09T06:38:53.935Z,99327.16
2023-01-09T06:40:25.730Z,99328.75
2023-01-09T06:41:57.946Z,99331.28
2023-01-09T06:43:31.402Z,99332.97
2023-01-09T06:45:03.565Z,99336.44
2023-01-09T06:46:35.294Z,99336.31
2023-01-09T06:48:07.337Z,99332.91
2023-01-09T06:49:39.289Z,99335.44
2023-01-09T06:51:11.013Z,99335.38
2023-01-09T06:52:44.127Z,99337.06
2023-01-09T06:54:15.876Z,99332.69
2023-01-09T06:55:47.661Z,99322.97
2023-01-09T06:57:19.338Z,99331.53
2023-01-09T06:58:51.037Z,99331.44
2023-01-09T07:00:22.904Z,99326.09
2023-01-09T07:01:54.669Z,99328.66
2023-01-09T07:03:26.410Z,99335.50
2023-01-09T07:04:58.110Z,99326.88
2023-01-09T07:06:29.815Z,99325.03
2023-01-09T07:08:03.190Z,99328.34
2023-01-09T07:09:34.925Z,99324.03
2023-01-09T07:11:06.716Z,99324.88
2023-01-09T07:12:38.613Z,99316.09
2023-01-09T07:14:10.367Z,99324.88
2023-01-09T07:15:42.107Z,99328.34
2023-01-09T07:17:13.977Z,99317.94
2023-01-09T07:18:45.755Z,99323.09
2023-01-09T07:20:18.115Z,99323.88
2023-01-09T07:21:49.805Z,99325.56
2023-01-09T07:23:22.904Z,99325.56
2023-01-09T07:24:54.655Z,99318.63
2023-01-09T07:26:26.409Z,99319.56
2023-01-09T07:27:58.154Z,99322.84
2023-01-09T07:29:30.817Z,99317.72
2023-01-09T07:31:04.476Z,99330.63
2023-01-09T07:32:38.408Z,99327.09
2023-01-09T07:34:10.092Z,99330.56
2023-01-09T07:35:41.802Z,99334.88
2023-01-09T07:37:13.501Z,99330.56
2023-01-09T07:38:46.695Z,99336.72
2023-01-09T07:40:18.614Z,99334.88
2023-01-09T07:41:50.354Z,99331.47
2023-01-09T07:43:22.007Z,99336.66
2023-01-09T07:44:53.707Z,99343.66
2023-01-09T07:46:25.517Z,99338.34
2023-01-09T07:47:57.270Z,99334.88
2023-01-09T07:49:29.063Z,99343.59
2023-01-09T07:51:00.807Z,99340.88
2023-01-09T07:52:32.692Z,99343.44
2023-01-09T07:54:06.295Z,99353.84
2023-01-09T07:55:37.981Z,99346.91
2023-01-09T07:57:09.700Z,99351.22
2023-01-09T07:58:41.472Z,99360.78
2023-01-09T08:00:14.284Z,99349.44
2023-01-09T08:01:45.998Z,99357.38
2023-01-09T08:03:17.696Z,99346.81
2023-01-09T08:04:49.377Z,99351.16
2023-01-09T08:06:21.171Z,99356.41
2023-01-09T08:07:52.903Z,99357.16
2023-01-09T08:09:25.938Z,99359.78
2023-01-09T08:10:57.656Z,99355.31
2023-01-09T08:12:29.411Z,99349.13
2023-01-09T08:14:01.116Z,99357.94
2023-01-09T08:15:33.599Z,99356.97
2023-01-09T08:17:05.338Z,99349.88
2023-01-09T08:18:37.052Z,99361.22
2023-01-09T08:20:11.106Z,99366.53
2023-01-09T08:21:42.824Z,99365.69
2023-01-09T08:23:14.487Z,99362.84
2023-01-09T08:24:47.776Z,99372.41
2023-01-09T08:26:19.676Z,99378.44
2023-01-09T08:27:51.557Z,99371.31
2023-01-09T08:29:23.591Z,99367.94
2023-01-09T08:30:55.576Z,99370.47
2023-01-09T08:32:27.398Z,99369.56
2023-01-09T08:33:59.386Z,99375.56
2023-01-09T08:35:31.138Z,99372.84
2023-01-09T08:37:02.906Z,99376.41
2023-01-09T08:38:34.610Z,99365.94
2023-01-09T08:40:10.448Z,99377.16
2023-01-09T08:42:00.833Z,99381.56
2023-01-09T08:43:50.925Z,99384.94
2023-01-09T08:45:41.479Z,99389.03
2023-01-09T08:47:15.077Z,99391.03
2023-01-09T08:48:48.338Z,99393.00
2023-01-09T08:50:20.101Z,99381.66
2023-01-09T08:51:51.834Z,99397.28
2023-01-09T08:53:23.618Z,99402.53
2023-01-09T08:54:55.295Z,99398.91
2023-01-09T08:56:28.337Z,99400.63
2023-01-09T08:58:04.492Z,99405.94
2023-01-09T08:59:36.930Z,99391.91
2023-01-09T09:01:08.743Z,99409.25
2023-01-09T09:02:40.486Z,99409.25
2023-01-09T09:04:15.628Z,99410.97
2023-01-09T09:05:48.141Z,99406.56
2023-01-09T09:07:27.025Z,99417.97
2023-01-09T09:09:03.407Z,99423.22
2023-01-09T09:10:35.105Z,99414.59
2023-01-09T09:12:09.024Z,99421.44
2023-01-09T09:13:40.748Z,99419.66
2023-01-09T09:15:12.388Z,99423.16
2023-01-09T09:16:44.087Z,99424.88
2023-01-09T09:18:15.884Z,99417.00
2023-01-09T09:19:56.676Z,99419.63
2023-01-09T09:21:28.942Z,99417.78
2023-01-09T09:23:07.913Z,99423.78
2023-01-09T09:24:39.892Z,99422.88
2023-01-09T09:26:11.574Z,99425.50
2023-01-09T09:27:44.932Z,99431.66
2023-01-09T09:29:16.755Z,99435.72
2023-01-09T09:30:48.620Z,99428.41
2023-01-09T09:32:20.366Z,99433.38
2023-01-09T09:33:52.016Z,99429.66
2023-01-09T09:35:24.555Z,99434.59
2023-01-09T09:36:56.275Z,99445.81
2023-01-09T09:38:28.107Z,99446.38
2023-01-09T09:40:09.587Z,99443.59
2023-01-09T09:42:24.518Z,99437.00
2023-01-09T09:44:36.207Z,99450.97
2023-01-09T09:46:20.368Z,99465.44
2023-01-09T09:48:06.528Z,99461.66
2023-01-09T09:49:47.562Z,99473.59
2023-01-09T09:51:42.083Z,99474.44
2023-01-09T09:53:21.020Z,99475.44
2023-01-09T09:54:53.215Z,99478.06
2023-01-09T09:56:27.275Z,99484.25
2023-01-09T09:58:02.690Z,99476.31
2023-01-09T09:59:39.713Z,99486.81
2023-01-09T10:01:16.268Z,99493.16
2023-01-09T10:02:53.492Z,99488.84
2023-01-09T10:04:28.625Z,99493.31
2023-01-09T10:06:02.637Z,99490.94
2023-01-09T10:07:42.075Z,99499.75
2023-01-09T10:09:24.894Z,99500.50
2023-01-09T10:10:56.819Z,99503.13
2023-01-09T10:12:30.956Z,99496.09
2023-01-09T10:14:06.373Z,99500.34
2023-01-09T10:15:46.348Z,99507.38
2023-01-09T10:17:57.053Z,99505.44
2023-01-09T10:19:42.530Z,99503.06
2023-01-09T10:21:19.689Z,99510.94
2023-01-09T10:23:01.310Z,99501.34
2023-01-09T10:24:49.976Z,99511.38
2023-01-09T10:26:28.084Z,99503.56
2023-01-09T10:28:14.279Z,99506.97
2023-01-09T10:29:55.951Z,99502.56
2023-01-09T10:31:35.564Z,99508.66
2023-01-09T10:33:20.314Z,99503.31
2023-01-09T10:35:01.762Z,99508.75
2023-01-09T10:36:56.616Z,99506.19
2023-01-09T10:38:34.471Z,99512.63
2023-01-09T10:40:18.245Z,99511.09
2023-01-09T10:41:57.049Z,99503.22
2023-01-09T10:43:34.960Z,99519.13
2023-01-09T10:45:17.568Z,99513.72
2023-01-09T10:46:54.328Z,99511.00
2023-01-09T10:48:31.007Z,99510.31
2023-01-09T10:50:18.304Z,99501.84
2023-01-09T10:51:51.688Z,99509.88
2023-01-09T10:53:27.871Z,99484.47
2023-01-09T10:55:05.731Z,99509.09
2023-01-09T10:56:41.908Z,99509.09
2023-01-09T10:58:15.185Z,99513.19
2023-01-09T10:59:46.860Z,99515.41
2023-01-09T11:01:22.430Z,99515.25
2023-01-09T11:02:55.500Z,99526.53
2023-01-09T11:04:31.773Z,99511.63
2023-01-09T11:06:05.790Z,99507.03
2023-01-09T11:07:42.011Z,99506.13
2023-01-09T11:09:15.136Z,99514.75
2023-01-09T11:10:52.079Z,99510.81
2023-01-09T11:12:25.304Z,99518.03
2023-01-09T11:14:05.170Z,99516.84
2023-01-09T11:15:36.940Z,99517.44
2023-01-09T11:17:19.389Z,99514.50
2023-01-09T11:18:54.627Z,99513.22
2023-01-09T11:20:28.953Z,99527.72
2023-01-09T11:22:09.845Z,99518.56
2023-01-09T11:23:41.642Z,99513.47
2023-01-09T11:25:15.040Z,99513.28
2023-01-09T11:26:49.077Z,99510.75
2023-01-09T11:28:20.945Z,99517.69
2023-01-09T11:30:24.087Z,99512.19
2023-01-09T11:31:58.336Z,99516.53
2023-01-09T11:33:33.432Z,99518.06
2023-01-09T11:35:14.032Z,99517.97
2023-01-09T11:36:46.555Z,99508.56
2023-01-09T11:38:18.340Z,99520.16
2023-01-09T11:39:50.114Z,99532.91
2023-01-09T11:41:24.636Z,99535.00
2023-01-09T11:43:10.076Z,99531.63
2023-01-09T11:44:45.625Z,99531.63
2023-01-09T11:46:35.030Z,99543.84
2023-01-09T11:48:17.011Z,99551.47
2023-01-09T11:49:51.312Z,99552.03
2023-01-09T11:51:26.756Z,99543.31
2023-01-09T11:53:14.272Z,99565.19
2023-01-09T11:54:50.274Z,99558.59
2023-01-09T11:56:22.217Z,99565.03
2023-01-09T11:57:53.871Z,99569.78
2023-01-09T11:59:28.247Z,99560.44
2023-01-09T12:01:10.193Z,99572.97
2023-01-09T12:02:58.038Z,99572.47
2023-01-09T12:04:35.817Z,99568.38
2023-01-09T12:06:18.256Z,99576.53
2023-01-09T12:08:06.868Z,99589.81
2023-01-09T12:09:46.542Z,99580.53
2023-01-09T12:11:32.103Z,99583.88
2023-01-09T12:13:12.860Z,99587.19
2023-01-09T12:14:56.908Z,99585.25
2023-01-09T12:16:36.751Z,99590.16
2023-01-09T12:18:25.435Z,99594.09
2023-01-09T12:20:32.114Z,99591.28
2023-01-09T12:22:13.490Z,99580.69
2023-01-09T12:23:59.271Z,99584.00
2023-01-09T12:25:44.007Z,99593.75
2023-01-09T12:27:26.604Z,99587.47
2023-01-09T12:29:35.713Z,99589.88
2023-01-09T12:31:24.041Z,99597.91
2023-01-09T12:33:11.437Z,99601.16
2023-01-09T12:35:06.744Z,99594.69
2023-01-09T12:36:50.324Z,99597.94
2023-01-09T12:38:39.483Z,99592.53
2023-01-09T12:40:30.648Z,99593.53
2023-01-09T12:42:13.689Z,99607.06
2023-01-09T12:43:53.664Z,99601.91
2023-01-09T12:45:39.221Z,99598.53
2023-01-09T12:47:37.226Z,99597.75
2023-01-09T12:49:27.200Z,99603.09
2023-01-09T12:51:28.346Z,99607.44
2023-01-09T12:53:08.899Z,99607.25
2023-01-09T12:54:45.867Z,99604.78
2023-01-09T12:56:26.361Z,99601.47
2023-01-09T12:58:02.187Z,99608.75
2023-01-09T12:59:39.786Z,99609.00
2023-01-09T13:01:17.604Z,99615.13
2023-01-09T13:03:03.643Z,99619.44
2023-01-09T13:04:49.194Z,99618.72
2023-01-09T13:06:24.499Z,99621.53
2023-01-09T13:08:02.260Z,99605.41
2023-01-09T13:09:41.438Z,99622.38
2023-01-09T13:11:23.469Z,99619.66
2023-01-09T13:12:57.474Z,99623.78
2023-01-09T13:14:44.135Z,99617.63
2023-01-09T13:16:21.338Z,99621.78
2023-01-09T13:17:57.534Z,99623.72
2023-01-09T13:19:34.562Z,99628.28
2023-01-09T13:21:07.869Z,99627.34
2023-01-09T13:22:39.739Z,99627.44
2023-01-09T13:24:17.883Z,99637.22
2023-01-09T13:25:53.584Z,99635.50
2023-01-09T13:27:31.895Z,99638.06
2023-01-09T13:29:10.600Z,99637.28
2023-01-09T13:31:21.130Z,99640.44
2023-01-09T13:33:05.076Z,99645.44
2023-01-09T13:34:38.687Z,99654.09
2023-01-09T13:36:23.529Z,99659.75
2023-01-09T13:37:55.567Z,99647.03
2023-01-09T13:39:30.055Z,99660.50
2023-01-09T13:41:26.880Z,99660.66
2023-01-09T13:43:02.979Z,99656.09
2023-01-09T13:44:34.891Z,99669.16
2023-01-09T13:46:06.872Z,99664.44
2023-01-09T13:47:38.675Z,99667.50
2023-01-09T13:49:32.814Z,99667.16
2023-01-09T13:51:37.312Z,99663.53
2023-01-09T13:53:45.748Z,99673.78
2023-01-09T13:55:30.042Z,99670.13
2023-01-09T13:57:26.697Z,99671.06
2023-01-09T13:59:02.948Z,99669.53
2023-01-09T14:00:49.873Z,99667.66
2023-01-09T14:03:04.431Z,99674.13
2023-01-09T14:04:44.633Z,99694.63
2023-01-09T14:06:20.006Z,99691.22
2023-01-09T14:08:02.529Z,99701.75
2023-01-09T14:09:37.625Z,99708.94
2023-01-09T14:11:17.181Z,99706.56
2023-01-09T14:12:50.576Z,99717.00
2023-01-09T14:14:30.041Z,99724.06
2023-01-09T14:16:05.541Z,99723.13
2023-01-09T14:17:38.510Z,99723.78
2023-01-09T14:19:26.889Z,99734.41
2023-01-09T14:21:01.403Z,99734.31
2023-01-09T14:22:45.525Z,99730.09
2023-01-09T14:24:31.329Z,99743.38
2023-01-09T14:26:04.894Z,99743.53
2023-01-09T14:28:08.994Z,99739.97
2023-01-09T14:29:44.636Z,99751.34
2023-01-09T14:31:31.133Z,99751.41
2023-01-09T14:33:04.158Z,99754.34
2023-01-09T14:34:37.809Z,99757.69
2023-01-09T14:36:14.564Z,99766.41
2023-01-09T14:37:55.374Z,99761.16
2023-01-09T14:39:29.893Z,99776.00
2023-01-09T14:41:09.077Z,99775.09
2023-01-09T14:42:42.053Z,99784.53
2023-01-09T14:44:25.807Z,99791.41
2023-01-09T14:46:04.988Z,99794.09
2023-01-09T14:47:41.475Z,99806.53
2023-01-09T14:49:20.718Z,99812.19
2023-01-09T14:50:55.890Z,99809.47
2023-01-09T14:52:30.780Z,99809.72
2023-01-09T14:54:14.122Z,99821.16
2023-01-09T14:55:51.144Z,99825.47
2023-01-09T14:57:24.701Z,99833.38
2023-01-09T14:59:10.572Z,99836.00
2023-01-09T15:00:54.449Z,99839.34
2023-01-09T15:02:31.599Z,99832.31
2023-01-09T15:04:08.566Z,99842.19
2023-01-09T15:05:40.365Z,99844.16
2023-01-09T15:07:21.149Z,99849.56
2023-01-09T15:08:56.759Z,99847.31
2023-01-09T15:10:31.470Z,99855.41
2023-01-09T15:12:07.963Z,99853.72
2023-01-09T15:13:44.973Z,99858.13
2023-01-09T15:15:18.669Z,99853.84
2023-01-09T15:16:51.826Z,99866.06
2023-01-09T15:18:27.718Z,99869.78
2023-01-09T15:20:02.588Z,99863.91
2023-01-09T15:21:34.360Z,99884.25
2023-01-09T15:23:06.123Z,99876.63
2023-01-09T15:24:37.896Z,99881.16
2023-01-09T15:26:14.927Z,99886.41
2023-01-09T15:27:47.593Z,99882.94
2023-01-09T15:29:20.488Z,99889.81
2023-01-09T15:31:03.099Z,99888.91
2023-01-09T15:32:35.267Z,99898.63
2023-01-09T15:34:15.635Z,99897.97
2023-01-09T15:35:51.054Z,99894.72
2023-01-09T15:37:27.671Z,99901.88
2023-01-09T15:39:00.033Z,99910.75
2023-01-09T15:40:34.374Z,99905.69
2023-01-09T15:42:39.264Z,99919.81
2023-01-09T15:44:16.083Z,99907.75
2023-01-09T15:45:48.801Z,99916.56
2023-01-09T15:47:23.960Z,99920.16
2023-01-09T15:48:55.873Z,99927.13
2023-01-09T15:50:29.605Z,99921.94
2023-01-09T15:52:02.422Z,99935.25
2023-01-09T15:53:34.560Z,99940.63
2023-01-09T15:55:24.951Z,99932.00
2023-01-09T15:57:30.249Z,99945.81
2023-01-09T15:59:02.015Z,99953.84
2023-01-09T16:00:41.426Z,99949.50
2023-01-09T16:02:33.299Z,99951.28
2023-01-09T16:04:08.254Z,99962.69
2023-01-09T16:05:43.690Z,99961.03
2023-01-09T16:07:18.526Z,99968.03
2023-01-09T16:08:53.759Z,99972.50
2023-01-09T16:10:30.356Z,99977.81
2023-01-09T16:12:03.955Z,99982.06
2023-01-09T16:13:43.283Z,99983.06
2023-01-09T16:15:18.081Z,99991.78
2023-01-09T16:16:52.053Z,99991.84
2023-01-09T16:18:30.177Z,99990.00
2023-01-09T16:20:13.999Z,100000.44
2023-01-09T16:21:56.923Z,100005.63
2023-01-09T16:23:31.303Z,99999.53
2023-01-09T16:25:25.280Z,100009.09
2023-01-09T16:27:21.291Z,100006.47
2023-01-09T16:28:53.430Z,100004.84
2023-01-09T16:30:26.991Z,99999.09
2023-01-09T16:32:00.575Z,100007.31
2023-01-09T16:33:32.690Z,100009.31
2023-01-09T16:35:07.512Z,100009.56
2023-01-09T16:36:39.197Z,100019.25
2023-01-09T16:38:14.371Z,100024.50
2023-01-09T16:40:16.700Z,100024.38
2023-01-09T16:42:07.096Z,100027.00
2023-01-09T16:43:38.892Z,100033.16
2023-01-09T16:45:11.175Z,100036.56
2023-01-09T16:46:44.501Z,100029.75
2023-01-09T16:48:21.163Z,100041.19
2023-01-09T16:49:52.842Z,100040.50
2023-01-09T16:51:25.761Z,100043.25
2023-01-09T16:52:57.665Z,100043.41
2023-01-09T16:54:31.010Z,100044.38
2023-01-09T16:56:02.882Z,100046.16
2023-01-09T16:57:35.243Z,100044.59
2023-01-09T16:59:12.071Z,100059.47
2023-01-09T17:00:44.039Z,100050.81
2023-01-09T17:02:18.333Z,100052.56
2023-01-09T17:03:50.693Z,100057.94
2023-01-09T17:05:22.463Z,100056.09
2023-01-09T17:06:54.151Z,100063.91
2023-01-09T17:08:28.495Z,100062.16
2023-01-09T17:10:02.163Z,100065.63
2023-01-09T17:11:34.000Z,100069.16
2023-01-09T17:13:06.737Z,100063.91
2023-01-09T17:14:38.369Z,100057.81
2023-01-09T17:16:11.018Z,100078.78
2023-01-09T17:17:42.695Z,100074.41
2023-01-09T17:19:18.226Z,100072.69
2023-01-09T17:20:52.226Z,100069.22
2023-01-09T17:22:23.926Z,100076.16
2023-01-09T17:24:14.307Z,100070.06
2023-01-09T17:26:07.767Z,100072.75
2023-01-09T17:27:58.414Z,100063.97
2023-01-09T17:29:30.432Z,100071.03
2023-01-09T17:31:05.772Z,100063.22
2023-01-09T17:32:37.516Z,100079.88
2023-01-09T17:34:09.444Z,100076.44
2023-01-09T17:35:41.881Z,100084.38
2023-01-09T17:37:15.391Z,100086.19
2023-01-09T17:38:47.302Z,100082.75
2023-01-09T17:40:20.595Z,100102.06
2023-01-09T17:41:53.691Z,100100.25
2023-01-09T17:43:25.407Z,100100.97
2023-01-09T17:44:58.368Z,100101.81
2023-01-09T17:46:32.718Z,100107.00
2023-01-09T17:48:04.889Z,100115.59
2023-01-09T17:49:36.536Z,100117.31
2023-01-09T17:51:09.433Z,100114.63
2023-01-09T17:52:41.174Z,100126.03
2023-01-09T17:54:13.288Z,100120.69
2023-01-09T17:55:44.960Z,100125.78
2023-01-09T17:57:18.349Z,100127.56
2023-01-09T17:58:52.880Z,100148.41
2023-01-09T18:00:28.104Z,100145.72
2023-01-09T18:01:59.854Z,100149.22
2023-01-09T18:03:33.544Z,100150.00
2023-01-09T18:05:06.073Z,100142.16
2023-01-09T18:06:37.943Z,100156.91
2023-01-09T18:08:12.730Z,100156.97
2023-01-09T18:09:44.763Z,100158.78
2023-01-09T18:11:19.204Z,100161.28
2023-01-09T18:12:53.944Z,100165.44
2023-01-09T18:14:25.646Z,100173.06
2023-01-09T18:15:57.491Z,100173.06
2023-01-09T18:17:29.201Z,100174.78
2023-01-09T18:19:01.748Z,100180.03
2023-01-09T18:20:35.836Z,100174.78
2023-01-09T18:22:07.516Z,100181.91
2023-01-09T18:23:39.188Z,100185.66
2023-01-09T18:25:11.020Z,100182.16
2023-01-09T18:26:42.754Z,100186.63
2023-01-09T18:28:16.108Z,100193.56
2023-01-09T18:29:47.767Z,100199.84
2023-01-09T18:31:23.427Z,100200.75
2023-01-09T18:32:55.115Z,100195.56
2023-01-09T18:34:26.847Z,100198.19
2023-01-09T18:36:08.681Z,100198.97
2023-01-09T18:37:40.320Z,100219.25
2023-01-09T18:39:12.240Z,100211.34
2023-01-09T18:40:44.038Z,100218.28
2023-01-09T18:42:15.764Z,100220.00
2023-01-09T18:43:50.309Z,100221.78